<?xml version="1.0" encoding="UTF-8" standalone="no" ?><gpx xmlns="http://www.topografix.com/GPX/1/1" xmlns:gpxx="http://www.garmin.com/xmlschemas/GpxExtensions/v3" xmlns:gpxtrkx="http://www.garmin.com/xmlschemas/TrackStatsExtension/v1" xmlns:wptx1="http://www.garmin.com/xmlschemas/WaypointExtension/v1" xmlns:gpxtpx="http://www.garmin.com/xmlschemas/TrackPointExtension/v1" creator="Oregon 700" version="1.1" xmlns:xsi="http://www.w3.org/2001/XMLSchema-instance" xsi:schemaLocation="http://www.topografix.com/GPX/1/1 http://www.topografix.com/GPX/1/1/gpx.xsd http://www.garmin.com/xmlschemas/GpxExtensions/v3 http://www8.garmin.com/xmlschemas/GpxExtensionsv3.xsd http://www.garmin.com/xmlschemas/TrackStatsExtension/v1 http://www8.garmin.com/xmlschemas/TrackStatsExtension.xsd http://www.garmin.com/xmlschemas/WaypointExtension/v1 http://www8.garmin.com/xmlschemas/WaypointExtensionv1.xsd http://www.garmin.com/xmlschemas/TrackPointExtension/v1 http://www.garmin.com/xmlschemas/TrackPointExtensionv1.xsd"><metadata><link href="http://www.garmin.com"><text>Garmin International</text></link><time>2021-11-10T14:59:34Z</time></metadata><trk><name>Current Track: 10 NOV 2021 09:54</name><extensions><gpxx:TrackExtension><gpxx:DisplayColor>Cyan</gpxx:DisplayColor></gpxx:TrackExtension><gpxtrkx:TrackStatsExtension><gpxtrkx:Distance>4695.000</gpxtrkx:Distance><gpxtrkx:TimerTime>6617</gpxtrkx:TimerTime><gpxtrkx:TotalElapsedTime>18315</gpxtrkx:TotalElapsedTime><gpxtrkx:MovingTime>5834</gpxtrkx:MovingTime><gpxtrkx:StoppedTime>784</gpxtrkx:StoppedTime><gpxtrkx:MovingSpeed>0.805</gpxtrkx:MovingSpeed><gpxtrkx:MaxSpeed>2.163</gpxtrkx:MaxSpeed><gpxtrkx:MaxElevation>8.503</gpxtrkx:MaxElevation><gpxtrkx:MinElevation>-57.439</gpxtrkx:MinElevation><gpxtrkx:Ascent>88.000</gpxtrkx:Ascent><gpxtrkx:Descent>89.410</gpxtrkx:Descent><gpxtrkx:AvgAscentRate>0.042</gpxtrkx:AvgAscentRate><gpxtrkx:MaxAscentRate>0.112</gpxtrkx:MaxAscentRate><gpxtrkx:AvgDescentRate>0.047</gpxtrkx:AvgDescentRate><gpxtrkx:MaxDescentRate>-0.121</gpxtrkx:MaxDescentRate><gpxtrkx:Calories>254</gpxtrkx:Calories></gpxtrkx:TrackStatsExtension></extensions><trkseg><trkpt lat="51.9985741563" lon="-2.0028281026"><ele>-54.59</ele><time>2021-11-10T09:54:19Z</time></trkpt><trkpt lat="51.9985563867" lon="-2.0028198045"><ele>-55.37</ele><time>2021-11-10T09:54:44Z</time></trkpt><trkpt lat="51.9985321630" lon="-2.0028193854"><ele>-56.32</ele><time>2021-11-10T09:55:06Z</time></trkpt><trkpt lat="51.9985742401" lon="-2.0027834270"><ele>-56.86</ele><time>2021-11-10T09:55:23Z</time></trkpt><trkpt lat="51.9985980447" lon="-2.0027453732"><ele>-57.42</ele><time>2021-11-10T09:55:55Z</time></trkpt><trkpt lat="51.9986667763" lon="-2.0026773121"><ele>-57.39</ele><time>2021-11-10T09:56:07Z</time></trkpt><trkpt lat="51.9987537805" lon="-2.0025704429"><ele>-57.46</ele><time>2021-11-10T09:56:22Z</time></trkpt><trkpt lat="51.9988416228" lon="-2.0024482347"><ele>-57.64</ele><time>2021-11-10T09:56:39Z</time></trkpt><trkpt lat="51.9988188241" lon="-2.0022879727"><ele>-57.36</ele><time>2021-11-10T09:56:54Z</time></trkpt><trkpt lat="51.9987626653" lon="-2.0020653494"><ele>-57.06</ele><time>2021-11-10T09:57:11Z</time></trkpt><trkpt lat="51.9987258688" lon="-2.0018211845"><ele>-56.88</ele><time>2021-11-10T09:57:29Z</time></trkpt><trkpt lat="51.9986967836" lon="-2.0017103758"><ele>-56.82</ele><time>2021-11-10T09:57:37Z</time></trkpt><trkpt lat="51.9986762479" lon="-2.0015236270"><ele>-56.81</ele><time>2021-11-10T09:57:52Z</time></trkpt><trkpt lat="51.9986182451" lon="-2.0012910292"><ele>-56.63</ele><time>2021-11-10T09:58:09Z</time></trkpt><trkpt lat="51.9985637628" lon="-2.0010700822"><ele>-56.47</ele><time>2021-11-10T09:58:27Z</time></trkpt><trkpt lat="51.9985282235" lon="-2.0008925535"><ele>-56.22</ele><time>2021-11-10T09:58:41Z</time></trkpt><trkpt lat="51.9985128008" lon="-2.0006849337"><ele>-56.10</ele><time>2021-11-10T09:58:58Z</time></trkpt><trkpt lat="51.9984946959" lon="-2.0004748832"><ele>-55.98</ele><time>2021-11-10T09:59:13Z</time></trkpt><trkpt lat="51.9984837994" lon="-2.0002552774"><ele>-55.77</ele><time>2021-11-10T09:59:28Z</time></trkpt><trkpt lat="51.9984879903" lon="-2.0000676904"><ele>-55.56</ele><time>2021-11-10T09:59:44Z</time></trkpt><trkpt lat="51.9984905049" lon="-1.9998891558"><ele>-55.34</ele><time>2021-11-10T10:00:03Z</time></trkpt><trkpt lat="51.9984811172" lon="-1.9997096993"><ele>-55.15</ele><time>2021-11-10T10:00:16Z</time></trkpt><trkpt lat="51.9984470867" lon="-1.9994657859"><ele>-54.72</ele><time>2021-11-10T10:00:34Z</time></trkpt><trkpt lat="51.9983734097" lon="-1.9993197732"><ele>-54.55</ele><time>2021-11-10T10:00:52Z</time></trkpt><trkpt lat="51.9982492737" lon="-1.9992321823"><ele>-54.71</ele><time>2021-11-10T10:01:10Z</time></trkpt><trkpt lat="51.9981784467" lon="-1.9990757760"><ele>-54.94</ele><time>2021-11-10T10:01:24Z</time></trkpt><trkpt lat="51.9981236290" lon="-1.9987975806"><ele>-55.14</ele><time>2021-11-10T10:01:39Z</time></trkpt><trkpt lat="51.9980917778" lon="-1.9986306969"><ele>-55.07</ele><time>2021-11-10T10:01:48Z</time></trkpt><trkpt lat="51.9980939571" lon="-1.9985294435"><ele>-55.16</ele><time>2021-11-10T10:01:53Z</time></trkpt><trkpt lat="51.9980954658" lon="-1.9983392581"><ele>-55.12</ele><time>2021-11-10T10:02:05Z</time></trkpt><trkpt lat="51.9981138222" lon="-1.9980986975"><ele>-54.93</ele><time>2021-11-10T10:02:20Z</time></trkpt><trkpt lat="51.9980943762" lon="-1.9978567120"><ele>-54.80</ele><time>2021-11-10T10:02:38Z</time></trkpt><trkpt lat="51.9981140736" lon="-1.9976382796"><ele>-54.89</ele><time>2021-11-10T10:02:54Z</time></trkpt><trkpt lat="51.9981491100" lon="-1.9975482579"><ele>-54.73</ele><time>2021-11-10T10:03:00Z</time></trkpt><trkpt lat="51.9981765188" lon="-1.9974821247"><ele>-54.64</ele><time>2021-11-10T10:03:05Z</time></trkpt><trkpt lat="51.9982118905" lon="-1.9974009041"><ele>-54.05</ele><time>2021-11-10T10:03:14Z</time></trkpt><trkpt lat="51.9982574042" lon="-1.9973364472"><ele>-54.22</ele><time>2021-11-10T10:03:20Z</time></trkpt><trkpt lat="51.9982905965" lon="-1.9972879998"><ele>-54.20</ele><time>2021-11-10T10:03:25Z</time></trkpt><trkpt lat="51.9983626809" lon="-1.9971536379"><ele>-54.09</ele><time>2021-11-10T10:03:37Z</time></trkpt><trkpt lat="51.9983919337" lon="-1.9970728364"><ele>-54.01</ele><time>2021-11-10T10:03:43Z</time></trkpt><trkpt lat="51.9984092005" lon="-1.9968296774"><ele>-53.53</ele><time>2021-11-10T10:03:59Z</time></trkpt><trkpt lat="51.9984060153" lon="-1.9968186133"><ele>-53.48</ele><time>2021-11-10T10:04:00Z</time></trkpt><trkpt lat="51.9983571488" lon="-1.9966171123"><ele>-52.70</ele><time>2021-11-10T10:04:17Z</time></trkpt><trkpt lat="51.9983471744" lon="-1.9965803996"><ele>-52.60</ele><time>2021-11-10T10:04:20Z</time></trkpt><trkpt lat="51.9983060192" lon="-1.9963655714"><ele>-51.67</ele><time>2021-11-10T10:04:36Z</time></trkpt><trkpt lat="51.9982672948" lon="-1.9961920660"><ele>-50.89</ele><time>2021-11-10T10:04:49Z</time></trkpt><trkpt lat="51.9982544705" lon="-1.9961507432"><ele>-50.77</ele><time>2021-11-10T10:04:52Z</time></trkpt><trkpt lat="51.9982056879" lon="-1.9959219173"><ele>-49.97</ele><time>2021-11-10T10:05:07Z</time></trkpt><trkpt lat="51.9981433265" lon="-1.9956991263"><ele>-49.56</ele><time>2021-11-10T10:05:24Z</time></trkpt><trkpt lat="51.9981110562" lon="-1.9955480844"><ele>-49.07</ele><time>2021-11-10T10:05:42Z</time></trkpt><trkpt lat="51.9980871677" lon="-1.9954873994"><ele>-49.14</ele><time>2021-11-10T10:06:01Z</time></trkpt><trkpt lat="51.9980415702" lon="-1.9954062626"><ele>-48.97</ele><time>2021-11-10T10:06:08Z</time></trkpt><trkpt lat="51.9979607686" lon="-1.9952271413"><ele>-48.80</ele><time>2021-11-10T10:06:23Z</time></trkpt><trkpt lat="51.9979064539" lon="-1.9951059390"><ele>-48.44</ele><time>2021-11-10T10:06:38Z</time></trkpt><trkpt lat="51.9978334475" lon="-1.9949183520"><ele>-48.48</ele><time>2021-11-10T10:06:54Z</time></trkpt><trkpt lat="51.9977547415" lon="-1.9947698247"><ele>-48.29</ele><time>2021-11-10T10:07:09Z</time></trkpt><trkpt lat="51.9976590201" lon="-1.9945891108"><ele>-48.06</ele><time>2021-11-10T10:07:25Z</time></trkpt><trkpt lat="51.9975858461" lon="-1.9944326207"><ele>-48.00</ele><time>2021-11-10T10:07:40Z</time></trkpt><trkpt lat="51.9975398295" lon="-1.9942965824"><ele>-48.22</ele><time>2021-11-10T10:07:54Z</time></trkpt><trkpt lat="51.9974648114" lon="-1.9941035472"><ele>-47.94</ele><time>2021-11-10T10:08:08Z</time></trkpt><trkpt lat="51.9974182919" lon="-1.9940187223"><ele>-47.94</ele><time>2021-11-10T10:08:15Z</time></trkpt><trkpt lat="51.9973544218" lon="-1.9938220829"><ele>-48.20</ele><time>2021-11-10T10:08:30Z</time></trkpt><trkpt lat="51.9973129313" lon="-1.9936243538"><ele>-48.62</ele><time>2021-11-10T10:08:44Z</time></trkpt><trkpt lat="51.9972990174" lon="-1.9935773313"><ele>-48.73</ele><time>2021-11-10T10:08:48Z</time></trkpt><trkpt lat="51.9972649030" lon="-1.9934236072"><ele>-49.13</ele><time>2021-11-10T10:08:59Z</time></trkpt><trkpt lat="51.9972252566" lon="-1.9931843877"><ele>-49.75</ele><time>2021-11-10T10:09:15Z</time></trkpt><trkpt lat="51.9972042181" lon="-1.9929622672"><ele>-50.46</ele><time>2021-11-10T10:09:30Z</time></trkpt><trkpt lat="51.9971542619" lon="-1.9927486964"><ele>-51.12</ele><time>2021-11-10T10:09:46Z</time></trkpt><trkpt lat="51.9971108437" lon="-1.9925492071"><ele>-51.49</ele><time>2021-11-10T10:10:00Z</time></trkpt><trkpt lat="51.9970820937" lon="-1.9923435990"><ele>-52.07</ele><time>2021-11-10T10:10:15Z</time></trkpt><trkpt lat="51.9970419444" lon="-1.9921163656"><ele>-52.84</ele><time>2021-11-10T10:10:30Z</time></trkpt><trkpt lat="51.9969910663" lon="-1.9918867853"><ele>-53.46</ele><time>2021-11-10T10:10:46Z</time></trkpt><trkpt lat="51.9969597179" lon="-1.9916686881"><ele>-54.39</ele><time>2021-11-10T10:11:01Z</time></trkpt><trkpt lat="51.9969218317" lon="-1.9914710429"><ele>-54.94</ele><time>2021-11-10T10:11:16Z</time></trkpt><trkpt lat="51.9968862087" lon="-1.9913434703"><ele>-55.47</ele><time>2021-11-10T10:11:33Z</time></trkpt><trkpt lat="51.9968753960" lon="-1.9911933504"><ele>-55.29</ele><time>2021-11-10T10:11:48Z</time></trkpt><trkpt lat="51.9969205745" lon="-1.9911535364"><ele>-56.10</ele><time>2021-11-10T10:12:09Z</time></trkpt><trkpt lat="51.9969298784" lon="-1.9911050890"><ele>-56.30</ele><time>2021-11-10T10:12:12Z</time></trkpt><trkpt lat="51.9969995320" lon="-1.9909563102"><ele>-55.12</ele><time>2021-11-10T10:12:24Z</time></trkpt><trkpt lat="51.9970300421" lon="-1.9908777718"><ele>-55.06</ele><time>2021-11-10T10:12:30Z</time></trkpt><trkpt lat="51.9971009530" lon="-1.9907009974"><ele>-54.71</ele><time>2021-11-10T10:12:43Z</time></trkpt><trkpt lat="51.9971103407" lon="-1.9906685594"><ele>-54.70</ele><time>2021-11-10T10:12:46Z</time></trkpt><trkpt lat="51.9971873704" lon="-1.9905008376"><ele>-53.93</ele><time>2021-11-10T10:13:01Z</time></trkpt><trkpt lat="51.9972368237" lon="-1.9903968181"><ele>-53.35</ele><time>2021-11-10T10:13:11Z</time></trkpt><trkpt lat="51.9972630590" lon="-1.9903308526"><ele>-52.85</ele><time>2021-11-10T10:13:19Z</time></trkpt><trkpt lat="51.9973247498" lon="-1.9901826605"><ele>-52.28</ele><time>2021-11-10T10:13:33Z</time></trkpt><trkpt lat="51.9973913021" lon="-1.9900306128"><ele>-51.58</ele><time>2021-11-10T10:13:47Z</time></trkpt><trkpt lat="51.9974387437" lon="-1.9899259228"><ele>-51.30</ele><time>2021-11-10T10:13:57Z</time></trkpt><trkpt lat="51.9974650629" lon="-1.9898748770"><ele>-51.17</ele><time>2021-11-10T10:14:01Z</time></trkpt><trkpt lat="51.9975373987" lon="-1.9897585362"><ele>-50.52</ele><time>2021-11-10T10:14:14Z</time></trkpt><trkpt lat="51.9975750335" lon="-1.9896967616"><ele>-50.52</ele><time>2021-11-10T10:14:20Z</time></trkpt><trkpt lat="51.9976124167" lon="-1.9896144513"><ele>-50.28</ele><time>2021-11-10T10:14:27Z</time></trkpt><trkpt lat="51.9976784661" lon="-1.9894888066"><ele>-50.10</ele><time>2021-11-10T10:14:39Z</time></trkpt><trkpt lat="51.9976900332" lon="-1.9894436281"><ele>-50.02</ele><time>2021-11-10T10:14:43Z</time></trkpt><trkpt lat="51.9977128319" lon="-1.9893717114"><ele>-49.80</ele><time>2021-11-10T10:14:49Z</time></trkpt><trkpt lat="51.9977368880" lon="-1.9893184863"><ele>-49.62</ele><time>2021-11-10T10:14:54Z</time></trkpt><trkpt lat="51.9977857545" lon="-1.9892179035"><ele>-49.19</ele><time>2021-11-10T10:15:03Z</time></trkpt><trkpt lat="51.9978098944" lon="-1.9891555421"><ele>-49.15</ele><time>2021-11-10T10:15:08Z</time></trkpt><trkpt lat="51.9978458527" lon="-1.9890759140"><ele>-48.94</ele><time>2021-11-10T10:15:15Z</time></trkpt><trkpt lat="51.9978678972" lon="-1.9890201744"><ele>-48.79</ele><time>2021-11-10T10:15:20Z</time></trkpt><trkpt lat="51.9979332760" lon="-1.9888827112"><ele>-48.23</ele><time>2021-11-10T10:15:33Z</time></trkpt><trkpt lat="51.9979913626" lon="-1.9887502771"><ele>-47.75</ele><time>2021-11-10T10:15:45Z</time></trkpt><trkpt lat="51.9979988225" lon="-1.9887071941"><ele>-47.51</ele><time>2021-11-10T10:15:49Z</time></trkpt><trkpt lat="51.9980278239" lon="-1.9886496942"><ele>-47.34</ele><time>2021-11-10T10:15:54Z</time></trkpt><trkpt lat="51.9980494492" lon="-1.9885973074"><ele>-47.21</ele><time>2021-11-10T10:15:59Z</time></trkpt><trkpt lat="51.9980730023" lon="-1.9885191042"><ele>-47.11</ele><time>2021-11-10T10:16:05Z</time></trkpt><trkpt lat="51.9980911911" lon="-1.9884725846"><ele>-46.98</ele><time>2021-11-10T10:16:09Z</time></trkpt><trkpt lat="51.9981485233" lon="-1.9883155078"><ele>-46.70</ele><time>2021-11-10T10:16:23Z</time></trkpt><trkpt lat="51.9981729146" lon="-1.9882621150"><ele>-46.45</ele><time>2021-11-10T10:16:28Z</time></trkpt><trkpt lat="51.9981920253" lon="-1.9882121589"><ele>-46.36</ele><time>2021-11-10T10:16:32Z</time></trkpt><trkpt lat="51.9982219487" lon="-1.9881525636"><ele>-46.28</ele><time>2021-11-10T10:16:37Z</time></trkpt><trkpt lat="51.9982558955" lon="-1.9880833291"><ele>-46.19</ele><time>2021-11-10T10:16:43Z</time></trkpt><trkpt lat="51.9982697256" lon="-1.9880401623"><ele>-46.10</ele><time>2021-11-10T10:16:47Z</time></trkpt><trkpt lat="51.9982915185" lon="-1.9879889488"><ele>-45.94</ele><time>2021-11-10T10:16:52Z</time></trkpt><trkpt lat="51.9983190112" lon="-1.9879543316"><ele>-45.75</ele><time>2021-11-10T10:16:56Z</time></trkpt><trkpt lat="51.9983801153" lon="-1.9878131803"><ele>-45.32</ele><time>2021-11-10T10:17:10Z</time></trkpt><trkpt lat="51.9984437339" lon="-1.9876841828"><ele>-45.06</ele><time>2021-11-10T10:17:22Z</time></trkpt><trkpt lat="51.9984550495" lon="-1.9876645692"><ele>-44.96</ele><time>2021-11-10T10:17:24Z</time></trkpt><trkpt lat="51.9984768424" lon="-1.9876030460"><ele>-44.75</ele><time>2021-11-10T10:17:29Z</time></trkpt><trkpt lat="51.9984926842" lon="-1.9875595439"><ele>-44.70</ele><time>2021-11-10T10:17:33Z</time></trkpt><trkpt lat="51.9985340908" lon="-1.9874705281"><ele>-44.51</ele><time>2021-11-10T10:17:41Z</time></trkpt><trkpt lat="51.9985656906" lon="-1.9874031376"><ele>-44.27</ele><time>2021-11-10T10:17:47Z</time></trkpt><trkpt lat="51.9985849690" lon="-1.9873665087"><ele>-44.21</ele><time>2021-11-10T10:17:51Z</time></trkpt><trkpt lat="51.9986187480" lon="-1.9873137865"><ele>-44.00</ele><time>2021-11-10T10:17:56Z</time></trkpt><trkpt lat="51.9986611605" lon="-1.9872038160"><ele>-43.68</ele><time>2021-11-10T10:18:06Z</time></trkpt><trkpt lat="51.9987205043" lon="-1.9870505109"><ele>-43.42</ele><time>2021-11-10T10:18:19Z</time></trkpt><trkpt lat="51.9987901580" lon="-1.9868786819"><ele>-42.86</ele><time>2021-11-10T10:18:34Z</time></trkpt><trkpt lat="51.9988114480" lon="-1.9868138898"><ele>-42.86</ele><time>2021-11-10T10:18:51Z</time></trkpt><trkpt lat="51.9988813531" lon="-1.9866610877"><ele>-42.56</ele><time>2021-11-10T10:19:05Z</time></trkpt><trkpt lat="51.9988935906" lon="-1.9866201002"><ele>-42.12</ele><time>2021-11-10T10:19:09Z</time></trkpt><trkpt lat="51.9989136234" lon="-1.9865785260"><ele>-41.62</ele><time>2021-11-10T10:19:13Z</time></trkpt><trkpt lat="51.9989621546" lon="-1.9864859898"><ele>-41.32</ele><time>2021-11-10T10:19:21Z</time></trkpt><trkpt lat="51.9989790861" lon="-1.9864432421"><ele>-41.20</ele><time>2021-11-10T10:19:25Z</time></trkpt><trkpt lat="51.9990126137" lon="-1.9863603450"><ele>-40.89</ele><time>2021-11-10T10:19:32Z</time></trkpt><trkpt lat="51.9990745559" lon="-1.9862294197"><ele>-40.64</ele><time>2021-11-10T10:19:43Z</time></trkpt><trkpt lat="51.9991086703" lon="-1.9861426670"><ele>-40.31</ele><time>2021-11-10T10:19:49Z</time></trkpt><trkpt lat="51.9991411921" lon="-1.9860861730"><ele>-40.18</ele><time>2021-11-10T10:19:54Z</time></trkpt><trkpt lat="51.9992292859" lon="-1.9859476201"><ele>-39.59</ele><time>2021-11-10T10:20:08Z</time></trkpt><trkpt lat="51.9992848579" lon="-1.9858842529"><ele>-39.25</ele><time>2021-11-10T10:20:16Z</time></trkpt><trkpt lat="51.9993673358" lon="-1.9857904594"><ele>-38.48</ele><time>2021-11-10T10:20:29Z</time></trkpt><trkpt lat="51.9993726164" lon="-1.9857835025"><ele>-38.43</ele><time>2021-11-10T10:20:30Z</time></trkpt><trkpt lat="51.9994258415" lon="-1.9857017789"><ele>-38.08</ele><time>2021-11-10T10:20:39Z</time></trkpt><trkpt lat="51.9994785637" lon="-1.9856285211"><ele>-37.67</ele><time>2021-11-10T10:20:47Z</time></trkpt><trkpt lat="51.9995542523" lon="-1.9855079055"><ele>-36.95</ele><time>2021-11-10T10:20:59Z</time></trkpt><trkpt lat="51.9995827507" lon="-1.9854276907"><ele>-36.91</ele><time>2021-11-10T10:21:07Z</time></trkpt><trkpt lat="51.9996086508" lon="-1.9853074104"><ele>-36.02</ele><time>2021-11-10T10:21:19Z</time></trkpt><trkpt lat="51.9996142667" lon="-1.9852647465"><ele>-36.04</ele><time>2021-11-10T10:21:40Z</time></trkpt><trkpt lat="51.9996184576" lon="-1.9851161353"><ele>-35.72</ele><time>2021-11-10T10:21:56Z</time></trkpt><trkpt lat="51.9996281806" lon="-1.9850701187"><ele>-35.18</ele><time>2021-11-10T10:22:12Z</time></trkpt><trkpt lat="51.9996339642" lon="-1.9850178156"><ele>-34.48</ele><time>2021-11-10T10:22:28Z</time></trkpt><trkpt lat="51.9996711798" lon="-1.9849999622"><ele>-34.92</ele><time>2021-11-10T10:22:58Z</time></trkpt><trkpt lat="51.9997612014" lon="-1.9849672727"><ele>-34.54</ele><time>2021-11-10T10:23:10Z</time></trkpt><trkpt lat="51.9998730160" lon="-1.9849335775"><ele>-34.12</ele><time>2021-11-10T10:23:25Z</time></trkpt><trkpt lat="52.0000043605" lon="-1.9848766644"><ele>-33.54</ele><time>2021-11-10T10:23:42Z</time></trkpt><trkpt lat="52.0001018420" lon="-1.9848282170"><ele>-33.37</ele><time>2021-11-10T10:23:54Z</time></trkpt><trkpt lat="52.0001093019" lon="-1.9848259538"><ele>-33.34</ele><time>2021-11-10T10:23:55Z</time></trkpt><trkpt lat="52.0002026763" lon="-1.9848086033"><ele>-32.78</ele><time>2021-11-10T10:24:07Z</time></trkpt><trkpt lat="52.0002835616" lon="-1.9847822003"><ele>-32.73</ele><time>2021-11-10T10:24:19Z</time></trkpt><trkpt lat="52.0003782772" lon="-1.9847288076"><ele>-32.21</ele><time>2021-11-10T10:24:31Z</time></trkpt><trkpt lat="52.0004967134" lon="-1.9846634287"><ele>-31.55</ele><time>2021-11-10T10:24:47Z</time></trkpt><trkpt lat="52.0006037503" lon="-1.9846221060"><ele>-31.06</ele><time>2021-11-10T10:25:01Z</time></trkpt><trkpt lat="52.0006931014" lon="-1.9845779333"><ele>-30.86</ele><time>2021-11-10T10:25:12Z</time></trkpt><trkpt lat="52.0007876493" lon="-1.9845489319"><ele>-30.35</ele><time>2021-11-10T10:25:24Z</time></trkpt><trkpt lat="52.0008573867" lon="-1.9845148176"><ele>-30.30</ele><time>2021-11-10T10:25:34Z</time></trkpt><trkpt lat="52.0009598136" lon="-1.9844649453"><ele>-29.27</ele><time>2021-11-10T10:25:47Z</time></trkpt><trkpt lat="52.0010620728" lon="-1.9844309147"><ele>-29.10</ele><time>2021-11-10T10:26:01Z</time></trkpt><trkpt lat="52.0011523459" lon="-1.9843346067"><ele>-28.40</ele><time>2021-11-10T10:26:16Z</time></trkpt><trkpt lat="52.0012685191" lon="-1.9842906017"><ele>-28.21</ele><time>2021-11-10T10:26:30Z</time></trkpt><trkpt lat="52.0013671741" lon="-1.9842668809"><ele>-27.93</ele><time>2021-11-10T10:26:41Z</time></trkpt><trkpt lat="52.0014856104" lon="-1.9842319284"><ele>-27.41</ele><time>2021-11-10T10:26:55Z</time></trkpt><trkpt lat="52.0015514921" lon="-1.9842218701"><ele>-26.71</ele><time>2021-11-10T10:27:03Z</time></trkpt><trkpt lat="52.0016372390" lon="-1.9841869175"><ele>-25.85</ele><time>2021-11-10T10:27:15Z</time></trkpt><trkpt lat="52.0017283503" lon="-1.9841079600"><ele>-25.16</ele><time>2021-11-10T10:27:28Z</time></trkpt><trkpt lat="52.0018273406" lon="-1.9840667211"><ele>-24.48</ele><time>2021-11-10T10:27:41Z</time></trkpt><trkpt lat="52.0019228105" lon="-1.9840156753"><ele>-23.72</ele><time>2021-11-10T10:27:54Z</time></trkpt><trkpt lat="52.0020360500" lon="-1.9839468598"><ele>-22.66</ele><time>2021-11-10T10:28:10Z</time></trkpt><trkpt lat="52.0021498762" lon="-1.9839146733"><ele>-21.55</ele><time>2021-11-10T10:28:26Z</time></trkpt><trkpt lat="52.0021994133" lon="-1.9838859234"><ele>-21.21</ele><time>2021-11-10T10:28:34Z</time></trkpt><trkpt lat="52.0023161732" lon="-1.9838380627"><ele>-19.82</ele><time>2021-11-10T10:28:49Z</time></trkpt><trkpt lat="52.0023767743" lon="-1.9838270824"><ele>-19.49</ele><time>2021-11-10T10:28:57Z</time></trkpt><trkpt lat="52.0024887566" lon="-1.9837775454"><ele>-17.88</ele><time>2021-11-10T10:29:12Z</time></trkpt><trkpt lat="52.0025869925" lon="-1.9837222248"><ele>-16.41</ele><time>2021-11-10T10:29:26Z</time></trkpt><trkpt lat="52.0026926883" lon="-1.9836732745"><ele>-14.91</ele><time>2021-11-10T10:29:41Z</time></trkpt><trkpt lat="52.0027989708" lon="-1.9835973345"><ele>-13.18</ele><time>2021-11-10T10:29:58Z</time></trkpt><trkpt lat="52.0028928481" lon="-1.9835468754"><ele>-11.43</ele><time>2021-11-10T10:30:12Z</time></trkpt><trkpt lat="52.0029852167" lon="-1.9834953267"><ele>-9.94</ele><time>2021-11-10T10:30:26Z</time></trkpt><trkpt lat="52.0030980371" lon="-1.9834836759"><ele>-8.08</ele><time>2021-11-10T10:30:43Z</time></trkpt><trkpt lat="52.0031214226" lon="-1.9834894594"><ele>-7.76</ele><time>2021-11-10T10:31:09Z</time></trkpt><trkpt lat="52.0031382702" lon="-1.9834825862"><ele>-7.94</ele><time>2021-11-10T10:31:47Z</time></trkpt><trkpt lat="52.0031444728" lon="-1.9834923092"><ele>-7.97</ele><time>2021-11-10T10:32:29Z</time></trkpt><trkpt lat="52.0031446405" lon="-1.9835045468"><ele>-8.29</ele><time>2021-11-10T10:33:10Z</time></trkpt><trkpt lat="52.0031521842" lon="-1.9835027028"><ele>-8.29</ele><time>2021-11-10T10:33:39Z</time></trkpt><trkpt lat="52.0031329058" lon="-1.9835430197"><ele>-8.29</ele><time>2021-11-10T10:33:59Z</time></trkpt><trkpt lat="52.0031526033" lon="-1.9835265074"><ele>-8.29</ele><time>2021-11-10T10:34:25Z</time></trkpt><trkpt lat="52.0031865500" lon="-1.9835029542"><ele>-8.29</ele><time>2021-11-10T10:34:48Z</time></trkpt><trkpt lat="52.0032859594" lon="-1.9835035410"><ele>-8.29</ele><time>2021-11-10T10:35:03Z</time></trkpt><trkpt lat="52.0034010429" lon="-1.9835493062"><ele>-5.84</ele><time>2021-11-10T10:35:18Z</time></trkpt><trkpt lat="52.0035025477" lon="-1.9835695904"><ele>-4.91</ele><time>2021-11-10T10:35:35Z</time></trkpt><trkpt lat="52.0035732910" lon="-1.9835844263"><ele>-4.57</ele><time>2021-11-10T10:35:52Z</time></trkpt><trkpt lat="52.0037111733" lon="-1.9836174510"><ele>-4.08</ele><time>2021-11-10T10:36:07Z</time></trkpt><trkpt lat="52.0038697589" lon="-1.9836708438"><ele>-4.17</ele><time>2021-11-10T10:36:25Z</time></trkpt><trkpt lat="52.0039916318" lon="-1.9836851768"><ele>-4.21</ele><time>2021-11-10T10:36:41Z</time></trkpt><trkpt lat="52.0041047037" lon="-1.9837238174"><ele>-4.06</ele><time>2021-11-10T10:36:58Z</time></trkpt><trkpt lat="52.0042378083" lon="-1.9838066306"><ele>-3.56</ele><time>2021-11-10T10:37:18Z</time></trkpt><trkpt lat="52.0043434203" lon="-1.9838621188"><ele>-3.19</ele><time>2021-11-10T10:37:35Z</time></trkpt><trkpt lat="52.0044020936" lon="-1.9839191996"><ele>-2.87</ele><time>2021-11-10T10:37:50Z</time></trkpt><trkpt lat="52.0044877566" lon="-1.9839764480"><ele>-2.90</ele><time>2021-11-10T10:38:11Z</time></trkpt><trkpt lat="52.0044920314" lon="-1.9839787111"><ele>-2.80</ele><time>2021-11-10T10:38:12Z</time></trkpt><trkpt lat="52.0045968052" lon="-1.9840058684"><ele>-1.86</ele><time>2021-11-10T10:38:26Z</time></trkpt><trkpt lat="52.0046952926" lon="-1.9840610214"><ele>-1.07</ele><time>2021-11-10T10:38:41Z</time></trkpt><trkpt lat="52.0047796983" lon="-1.9842044357"><ele>-0.24</ele><time>2021-11-10T10:38:58Z</time></trkpt><trkpt lat="52.0048847236" lon="-1.9843620993"><ele>0.09</ele><time>2021-11-10T10:39:14Z</time></trkpt><trkpt lat="52.0049114618" lon="-1.9844501093"><ele>-0.15</ele><time>2021-11-10T10:39:31Z</time></trkpt><trkpt lat="52.0048770122" lon="-1.9844961260"><ele>-0.20</ele><time>2021-11-10T10:39:41Z</time></trkpt><trkpt lat="52.0048136450" lon="-1.9845042564"><ele>-0.88</ele><time>2021-11-10T10:40:01Z</time></trkpt><trkpt lat="52.0047200192" lon="-1.9845076092"><ele>-1.81</ele><time>2021-11-10T10:40:16Z</time></trkpt><trkpt lat="52.0046434924" lon="-1.9844801165"><ele>-2.69</ele><time>2021-11-10T10:40:30Z</time></trkpt><trkpt lat="52.0045682229" lon="-1.9844562281"><ele>-3.57</ele><time>2021-11-10T10:40:42Z</time></trkpt><trkpt lat="52.0044928696" lon="-1.9844405539"><ele>-4.63</ele><time>2021-11-10T10:40:54Z</time></trkpt><trkpt lat="52.0044617727" lon="-1.9844358601"><ele>-4.97</ele><time>2021-11-10T10:40:59Z</time></trkpt><trkpt lat="52.0043661352" lon="-1.9844149891"><ele>-5.91</ele><time>2021-11-10T10:41:13Z</time></trkpt><trkpt lat="52.0042681508" lon="-1.9844010752"><ele>-6.87</ele><time>2021-11-10T10:41:29Z</time></trkpt><trkpt lat="52.0041703340" lon="-1.9844009914"><ele>-7.75</ele><time>2021-11-10T10:41:44Z</time></trkpt><trkpt lat="52.0040696673" lon="-1.9843987282"><ele>-8.88</ele><time>2021-11-10T10:42:01Z</time></trkpt><trkpt lat="52.0040275063" lon="-1.9843987282"><ele>-9.46</ele><time>2021-11-10T10:42:22Z</time></trkpt><trkpt lat="52.0039519854" lon="-1.9844288193"><ele>-9.86</ele><time>2021-11-10T10:42:33Z</time></trkpt><trkpt lat="52.0038457867" lon="-1.9844735786"><ele>-10.54</ele><time>2021-11-10T10:42:47Z</time></trkpt><trkpt lat="52.0037700143" lon="-1.9845284801"><ele>-11.21</ele><time>2021-11-10T10:43:00Z</time></trkpt><trkpt lat="52.0036895480" lon="-1.9846141431"><ele>-11.70</ele><time>2021-11-10T10:43:15Z</time></trkpt><trkpt lat="52.0036788192" lon="-1.9846288953"><ele>-11.80</ele><time>2021-11-10T10:43:17Z</time></trkpt><trkpt lat="52.0036400948" lon="-1.9846931007"><ele>-11.81</ele><time>2021-11-10T10:43:24Z</time></trkpt><trkpt lat="52.0036071539" lon="-1.9847623352"><ele>-11.68</ele><time>2021-11-10T10:43:31Z</time></trkpt><trkpt lat="52.0035676751" lon="-1.9848411251"><ele>-11.53</ele><time>2021-11-10T10:43:38Z</time></trkpt><trkpt lat="52.0035541803" lon="-1.9848866388"><ele>-11.46</ele><time>2021-11-10T10:43:42Z</time></trkpt><trkpt lat="52.0035298727" lon="-1.9850333221"><ele>-10.75</ele><time>2021-11-10T10:43:54Z</time></trkpt><trkpt lat="52.0035126060" lon="-1.9851898123"><ele>-10.24</ele><time>2021-11-10T10:44:07Z</time></trkpt><trkpt lat="52.0034849457" lon="-1.9852968492"><ele>-9.81</ele><time>2021-11-10T10:44:20Z</time></trkpt><trkpt lat="52.0034772344" lon="-1.9854354858"><ele>-9.12</ele><time>2021-11-10T10:44:36Z</time></trkpt><trkpt lat="52.0035051461" lon="-1.9855701830"><ele>-8.41</ele><time>2021-11-10T10:44:55Z</time></trkpt><trkpt lat="52.0035358239" lon="-1.9858130906"><ele>-7.40</ele><time>2021-11-10T10:45:15Z</time></trkpt><trkpt lat="52.0035623945" lon="-1.9859724306"><ele>-7.14</ele><time>2021-11-10T10:45:29Z</time></trkpt><trkpt lat="52.0035783201" lon="-1.9862192776"><ele>-6.63</ele><time>2021-11-10T10:45:48Z</time></trkpt><trkpt lat="52.0035995264" lon="-1.9863866642"><ele>-6.08</ele><time>2021-11-10T10:46:04Z</time></trkpt><trkpt lat="52.0036214031" lon="-1.9865921885"><ele>-6.36</ele><time>2021-11-10T10:46:21Z</time></trkpt><trkpt lat="52.0036507398" lon="-1.9868313242"><ele>-5.67</ele><time>2021-11-10T10:46:43Z</time></trkpt><trkpt lat="52.0036727842" lon="-1.9870065898"><ele>-5.64</ele><time>2021-11-10T10:47:00Z</time></trkpt><trkpt lat="52.0037135202" lon="-1.9872182328"><ele>-5.41</ele><time>2021-11-10T10:47:21Z</time></trkpt><trkpt lat="52.0037521608" lon="-1.9873890560"><ele>-5.09</ele><time>2021-11-10T10:47:42Z</time></trkpt><trkpt lat="52.0038078167" lon="-1.9875640702"><ele>-5.27</ele><time>2021-11-10T10:48:06Z</time></trkpt><trkpt lat="52.0038675796" lon="-1.9877157826"><ele>-4.60</ele><time>2021-11-10T10:48:21Z</time></trkpt><trkpt lat="52.0039505605" lon="-1.9878824148"><ele>-4.30</ele><time>2021-11-10T10:48:42Z</time></trkpt><trkpt lat="52.0040363912" lon="-1.9880873524"><ele>-3.74</ele><time>2021-11-10T10:49:02Z</time></trkpt><trkpt lat="52.0041250717" lon="-1.9882610254"><ele>-3.25</ele><time>2021-11-10T10:49:23Z</time></trkpt><trkpt lat="52.0042218827" lon="-1.9884194434"><ele>-2.86</ele><time>2021-11-10T10:49:41Z</time></trkpt><trkpt lat="52.0043133292" lon="-1.9885683060"><ele>-2.63</ele><time>2021-11-10T10:50:03Z</time></trkpt><trkpt lat="52.0043787919" lon="-1.9887270592"><ele>-3.37</ele><time>2021-11-10T10:50:21Z</time></trkpt><trkpt lat="52.0044717472" lon="-1.9888708927"><ele>-4.30</ele><time>2021-11-10T10:50:39Z</time></trkpt><trkpt lat="52.0044839010" lon="-1.9888842199"><ele>-4.30</ele><time>2021-11-10T10:50:41Z</time></trkpt><trkpt lat="52.0045736711" lon="-1.9889463298"><ele>-4.21</ele><time>2021-11-10T10:50:55Z</time></trkpt><trkpt lat="52.0046357810" lon="-1.9890464097"><ele>-4.02</ele><time>2021-11-10T10:51:09Z</time></trkpt><trkpt lat="52.0046768524" lon="-1.9891821966"><ele>-4.56</ele><time>2021-11-10T10:51:22Z</time></trkpt><trkpt lat="52.0047257189" lon="-1.9893485773"><ele>-4.41</ele><time>2021-11-10T10:51:37Z</time></trkpt><trkpt lat="52.0047838893" lon="-1.9895095937"><ele>-3.48</ele><time>2021-11-10T10:51:51Z</time></trkpt><trkpt lat="52.0048178360" lon="-1.9896299578"><ele>-2.70</ele><time>2021-11-10T10:52:03Z</time></trkpt><trkpt lat="52.0048459992" lon="-1.9897175487"><ele>-1.77</ele><time>2021-11-10T10:52:17Z</time></trkpt><trkpt lat="52.0049100369" lon="-1.9898698479"><ele>-0.68</ele><time>2021-11-10T10:52:36Z</time></trkpt><trkpt lat="52.0049956162" lon="-1.9901119173"><ele>1.48</ele><time>2021-11-10T10:52:59Z</time></trkpt><trkpt lat="52.0050624199" lon="-1.9902938046"><ele>2.11</ele><time>2021-11-10T10:53:18Z</time></trkpt><trkpt lat="52.0051218476" lon="-1.9903999195"><ele>2.96</ele><time>2021-11-10T10:53:33Z</time></trkpt><trkpt lat="52.0051664393" lon="-1.9904986583"><ele>3.40</ele><time>2021-11-10T10:53:43Z</time></trkpt><trkpt lat="52.0052263699" lon="-1.9906169269"><ele>3.49</ele><time>2021-11-10T10:53:59Z</time></trkpt><trkpt lat="52.0053325687" lon="-1.9907981437"><ele>3.78</ele><time>2021-11-10T10:54:17Z</time></trkpt><trkpt lat="52.0054189023" lon="-1.9910261314"><ele>3.99</ele><time>2021-11-10T10:54:38Z</time></trkpt><trkpt lat="52.0054831076" lon="-1.9911304861"><ele>4.33</ele><time>2021-11-10T10:54:54Z</time></trkpt><trkpt lat="52.0055997837" lon="-1.9912444800"><ele>4.88</ele><time>2021-11-10T10:55:15Z</time></trkpt><trkpt lat="52.0057125203" lon="-1.9913676940"><ele>4.95</ele><time>2021-11-10T10:55:34Z</time></trkpt><trkpt lat="52.0058160368" lon="-1.9914379343"><ele>4.65</ele><time>2021-11-10T10:55:57Z</time></trkpt><trkpt lat="52.0058975089" lon="-1.9914003834"><ele>4.35</ele><time>2021-11-10T10:56:20Z</time></trkpt><trkpt lat="52.0060301106" lon="-1.9914100226"><ele>4.31</ele><time>2021-11-10T10:56:42Z</time></trkpt><trkpt lat="52.0060412586" lon="-1.9914640021"><ele>4.07</ele><time>2021-11-10T10:57:03Z</time></trkpt><trkpt lat="52.0060135145" lon="-1.9915534370"><ele>3.55</ele><time>2021-11-10T10:57:25Z</time></trkpt><trkpt lat="52.0060222317" lon="-1.9914954342"><ele>4.97</ele><time>2021-11-10T10:57:49Z</time></trkpt><trkpt lat="52.0060318708" lon="-1.9914774969"><ele>5.32</ele><time>2021-11-10T10:58:15Z</time></trkpt><trkpt lat="52.0059856866" lon="-1.9914655108"><ele>4.17</ele><time>2021-11-10T10:58:42Z</time></trkpt><trkpt lat="52.0060223155" lon="-1.9914286304"><ele>4.07</ele><time>2021-11-10T10:59:05Z</time></trkpt><trkpt lat="52.0060356427" lon="-1.9914738089"><ele>4.10</ele><time>2021-11-10T10:59:34Z</time></trkpt><trkpt lat="52.0060182083" lon="-1.9914868847"><ele>4.30</ele><time>2021-11-10T10:59:58Z</time></trkpt><trkpt lat="52.0060518198" lon="-1.9914526865"><ele>4.16</ele><time>2021-11-10T11:00:29Z</time></trkpt><trkpt lat="52.0060693379" lon="-1.9914346654"><ele>4.16</ele><time>2021-11-10T11:00:47Z</time></trkpt><trkpt lat="52.0060414262" lon="-1.9914767426"><ele>4.16</ele><time>2021-11-10T11:01:02Z</time></trkpt><trkpt lat="52.0060586091" lon="-1.9914288819"><ele>4.16</ele><time>2021-11-10T11:01:28Z</time></trkpt><trkpt lat="52.0060482994" lon="-1.9913375191"><ele>4.16</ele><time>2021-11-10T11:01:57Z</time></trkpt><trkpt lat="52.0060301106" lon="-1.9913631678"><ele>4.16</ele><time>2021-11-10T11:02:23Z</time></trkpt><trkpt lat="52.0059961639" lon="-1.9913673587"><ele>4.16</ele><time>2021-11-10T11:02:50Z</time></trkpt><trkpt lat="52.0060011931" lon="-1.9913866371"><ele>4.16</ele><time>2021-11-10T11:03:16Z</time></trkpt><trkpt lat="52.0059958287" lon="-1.9914428797"><ele>4.16</ele><time>2021-11-10T11:03:41Z</time></trkpt><trkpt lat="52.0060141850" lon="-1.9914910756"><ele>4.16</ele><time>2021-11-10T11:04:03Z</time></trkpt><trkpt lat="52.0059998520" lon="-1.9914685283"><ele>4.16</ele><time>2021-11-10T11:04:17Z</time></trkpt><trkpt lat="52.0060217287" lon="-1.9914766587"><ele>4.16</ele><time>2021-11-10T11:04:37Z</time></trkpt><trkpt lat="52.0060053002" lon="-1.9914598949"><ele>4.16</ele><time>2021-11-10T11:04:58Z</time></trkpt><trkpt lat="52.0060109999" lon="-1.9914865494"><ele>4.16</ele><time>2021-11-10T11:05:20Z</time></trkpt><trkpt lat="52.0060078148" lon="-1.9914705399"><ele>4.16</ele><time>2021-11-10T11:05:43Z</time></trkpt><trkpt lat="52.0060402527" lon="-1.9914650079"><ele>4.16</ele><time>2021-11-10T11:06:03Z</time></trkpt><trkpt lat="52.0060327090" lon="-1.9914024789"><ele>4.16</ele><time>2021-11-10T11:06:29Z</time></trkpt><trkpt lat="52.0060049649" lon="-1.9914076757"><ele>4.16</ele><time>2021-11-10T11:06:53Z</time></trkpt><trkpt lat="52.0059601218" lon="-1.9913623296"><ele>4.16</ele><time>2021-11-10T11:07:19Z</time></trkpt><trkpt lat="52.0059698448" lon="-1.9913404528"><ele>4.16</ele><time>2021-11-10T11:07:45Z</time></trkpt><trkpt lat="52.0059866086" lon="-1.9913980365"><ele>4.16</ele><time>2021-11-10T11:08:08Z</time></trkpt><trkpt lat="52.0059985947" lon="-1.9913153909"><ele>4.16</ele><time>2021-11-10T11:08:33Z</time></trkpt><trkpt lat="52.0059856866" lon="-1.9913529418"><ele>4.16</ele><time>2021-11-10T11:08:59Z</time></trkpt><trkpt lat="52.0059678331" lon="-1.9913258683"><ele>4.16</ele><time>2021-11-10T11:09:26Z</time></trkpt><trkpt lat="52.0059696771" lon="-1.9913992938"><ele>4.16</ele><time>2021-11-10T11:09:45Z</time></trkpt><trkpt lat="52.0059964154" lon="-1.9914301392"><ele>4.16</ele><time>2021-11-10T11:10:04Z</time></trkpt><trkpt lat="52.0059988461" lon="-1.9914101902"><ele>4.16</ele><time>2021-11-10T11:10:23Z</time></trkpt><trkpt lat="52.0060008578" lon="-1.9914811850"><ele>4.16</ele><time>2021-11-10T11:10:47Z</time></trkpt><trkpt lat="52.0059958287" lon="-1.9914584700"><ele>4.16</ele><time>2021-11-10T11:11:17Z</time></trkpt><trkpt lat="52.0059924759" lon="-1.9914338272"><ele>4.16</ele><time>2021-11-10T11:11:52Z</time></trkpt><trkpt lat="52.0059789810" lon="-1.9913963601"><ele>4.16</ele><time>2021-11-10T11:12:20Z</time></trkpt><trkpt lat="52.0060457848" lon="-1.9913544506"><ele>4.16</ele><time>2021-11-10T11:12:41Z</time></trkpt><trkpt lat="52.0061425958" lon="-1.9913696218"><ele>4.16</ele><time>2021-11-10T11:13:01Z</time></trkpt><trkpt lat="52.0062788855" lon="-1.9914357550"><ele>4.16</ele><time>2021-11-10T11:13:20Z</time></trkpt><trkpt lat="52.0063858386" lon="-1.9915720448"><ele>4.16</ele><time>2021-11-10T11:13:38Z</time></trkpt><trkpt lat="52.0064528100" lon="-1.9916023035"><ele>4.16</ele><time>2021-11-10T11:13:55Z</time></trkpt><trkpt lat="52.0064789616" lon="-1.9917304628"><ele>4.41</ele><time>2021-11-10T11:14:15Z</time></trkpt><trkpt lat="52.0065130759" lon="-1.9919599593"><ele>5.50</ele><time>2021-11-10T11:14:33Z</time></trkpt><trkpt lat="52.0065280795" lon="-1.9921245798"><ele>7.42</ele><time>2021-11-10T11:14:50Z</time></trkpt><trkpt lat="52.0065275766" lon="-1.9921867736"><ele>8.00</ele><time>2021-11-10T11:14:54Z</time></trkpt><trkpt lat="52.0064908639" lon="-1.9923578482"><ele>8.39</ele><time>2021-11-10T11:15:07Z</time></trkpt><trkpt lat="52.0064185280" lon="-1.9925832376"><ele>7.84</ele><time>2021-11-10T11:15:24Z</time></trkpt><trkpt lat="52.0063944720" lon="-1.9926906098"><ele>7.47</ele><time>2021-11-10T11:15:33Z</time></trkpt><trkpt lat="52.0063775405" lon="-1.9928719103"><ele>6.95</ele><time>2021-11-10T11:15:47Z</time></trkpt><trkpt lat="52.0063790493" lon="-1.9929579087"><ele>6.34</ele><time>2021-11-10T11:16:08Z</time></trkpt><trkpt lat="52.0063606929" lon="-1.9931958709"><ele>5.54</ele><time>2021-11-10T11:16:26Z</time></trkpt><trkpt lat="52.0063565020" lon="-1.9933833741"><ele>4.46</ele><time>2021-11-10T11:16:43Z</time></trkpt><trkpt lat="52.0063813124" lon="-1.9935957715"><ele>3.76</ele><time>2021-11-10T11:16:58Z</time></trkpt><trkpt lat="52.0064341184" lon="-1.9937829394"><ele>3.22</ele><time>2021-11-10T11:17:15Z</time></trkpt><trkpt lat="52.0064374711" lon="-1.9937972724"><ele>3.17</ele><time>2021-11-10T11:17:16Z</time></trkpt><trkpt lat="52.0064513851" lon="-1.9938935805"><ele>2.23</ele><time>2021-11-10T11:17:31Z</time></trkpt><trkpt lat="52.0064885169" lon="-1.9940816704"><ele>1.25</ele><time>2021-11-10T11:17:47Z</time></trkpt><trkpt lat="52.0064792968" lon="-1.9941340573"><ele>0.66</ele><time>2021-11-10T11:18:09Z</time></trkpt><trkpt lat="52.0064776205" lon="-1.9941509049"><ele>0.66</ele><time>2021-11-10T11:18:13Z</time></trkpt><trkpt lat="52.0063875150" lon="-1.9941569399"><ele>-0.05</ele><time>2021-11-10T11:18:30Z</time></trkpt><trkpt lat="52.0062971581" lon="-1.9941228256"><ele>-1.51</ele><time>2021-11-10T11:18:42Z</time></trkpt><trkpt lat="52.0062127523" lon="-1.9940479752"><ele>-3.04</ele><time>2021-11-10T11:18:56Z</time></trkpt><trkpt lat="52.0061336271" lon="-1.9939953368"><ele>-4.22</ele><time>2021-11-10T11:19:09Z</time></trkpt><trkpt lat="52.0060573518" lon="-1.9939543493"><ele>-5.56</ele><time>2021-11-10T11:19:21Z</time></trkpt><trkpt lat="52.0059903804" lon="-1.9939149544"><ele>-6.73</ele><time>2021-11-10T11:19:33Z</time></trkpt><trkpt lat="52.0059097465" lon="-1.9938747212"><ele>-8.13</ele><time>2021-11-10T11:19:47Z</time></trkpt><trkpt lat="52.0058409311" lon="-1.9938536827"><ele>-9.49</ele><time>2021-11-10T11:19:59Z</time></trkpt><trkpt lat="52.0057818387" lon="-1.9938429538"><ele>-10.94</ele><time>2021-11-10T11:20:14Z</time></trkpt><trkpt lat="52.0057485625" lon="-1.9938390981"><ele>-11.10</ele><time>2021-11-10T11:20:18Z</time></trkpt><trkpt lat="52.0057133585" lon="-1.9938281178"><ele>-11.28</ele><time>2021-11-10T11:20:22Z</time></trkpt><trkpt lat="52.0056819264" lon="-1.9938093424"><ele>-11.57</ele><time>2021-11-10T11:20:26Z</time></trkpt><trkpt lat="52.0055786613" lon="-1.9938390981"><ele>-13.20</ele><time>2021-11-10T11:20:41Z</time></trkpt><trkpt lat="52.0054779109" lon="-1.9938778225"><ele>-14.93</ele><time>2021-11-10T11:20:56Z</time></trkpt><trkpt lat="52.0053836145" lon="-1.9939267728"><ele>-17.10</ele><time>2021-11-10T11:21:14Z</time></trkpt><trkpt lat="52.0053210855" lon="-1.9939758908"><ele>-18.20</ele><time>2021-11-10T11:21:26Z</time></trkpt><trkpt lat="52.0052458998" lon="-1.9940493163"><ele>-19.47</ele><time>2021-11-10T11:21:40Z</time></trkpt><trkpt lat="52.0051487535" lon="-1.9940898009"><ele>-20.66</ele><time>2021-11-10T11:21:54Z</time></trkpt><trkpt lat="52.0050520264" lon="-1.9941561017"><ele>-21.84</ele><time>2021-11-10T11:22:09Z</time></trkpt><trkpt lat="52.0050043333" lon="-1.9941902161"><ele>-22.36</ele><time>2021-11-10T11:22:16Z</time></trkpt><trkpt lat="52.0049126353" lon="-1.9942275155"><ele>-23.20</ele><time>2021-11-10T11:22:29Z</time></trkpt><trkpt lat="52.0048703905" lon="-1.9942540023"><ele>-23.71</ele><time>2021-11-10T11:22:45Z</time></trkpt><trkpt lat="52.0048365276" lon="-1.9942579418"><ele>-23.91</ele><time>2021-11-10T11:22:51Z</time></trkpt><trkpt lat="52.0048095379" lon="-1.9942602888"><ele>-24.26</ele><time>2021-11-10T11:23:02Z</time></trkpt><trkpt lat="52.0047264732" lon="-1.9943461195"><ele>-24.74</ele><time>2021-11-10T11:23:16Z</time></trkpt><trkpt lat="52.0046475995" lon="-1.9943697564"><ele>-25.34</ele><time>2021-11-10T11:23:28Z</time></trkpt><trkpt lat="52.0045488607" lon="-1.9944479596"><ele>-25.93</ele><time>2021-11-10T11:23:42Z</time></trkpt><trkpt lat="52.0044622757" lon="-1.9944786374"><ele>-26.37</ele><time>2021-11-10T11:23:53Z</time></trkpt><trkpt lat="52.0044269878" lon="-1.9944747817"><ele>-26.55</ele><time>2021-11-10T11:23:58Z</time></trkpt><trkpt lat="52.0043487847" lon="-1.9945250731"><ele>-26.87</ele><time>2021-11-10T11:24:09Z</time></trkpt><trkpt lat="52.0042540692" lon="-1.9946131669"><ele>-27.25</ele><time>2021-11-10T11:24:21Z</time></trkpt><trkpt lat="52.0042479504" lon="-1.9946192857"><ele>-27.29</ele><time>2021-11-10T11:24:22Z</time></trkpt><trkpt lat="52.0041555818" lon="-1.9947144203"><ele>-27.65</ele><time>2021-11-10T11:24:36Z</time></trkpt><trkpt lat="52.0041275024" lon="-1.9947306812"><ele>-28.08</ele><time>2021-11-10T11:24:52Z</time></trkpt><trkpt lat="52.0040903706" lon="-1.9947495405"><ele>-28.12</ele><time>2021-11-10T11:25:08Z</time></trkpt><trkpt lat="52.0040574297" lon="-1.9947592635"><ele>-28.50</ele><time>2021-11-10T11:25:26Z</time></trkpt><trkpt lat="52.0040425099" lon="-1.9948661327"><ele>-28.64</ele><time>2021-11-10T11:25:42Z</time></trkpt><trkpt lat="52.0040597767" lon="-1.9950113911"><ele>-29.00</ele><time>2021-11-10T11:25:55Z</time></trkpt><trkpt lat="52.0040804800" lon="-1.9951322582"><ele>-29.63</ele><time>2021-11-10T11:26:06Z</time></trkpt><trkpt lat="52.0040962379" lon="-1.9951838907"><ele>-29.89</ele><time>2021-11-10T11:26:10Z</time></trkpt><trkpt lat="52.0041095652" lon="-1.9952694699"><ele>-30.49</ele><time>2021-11-10T11:26:17Z</time></trkpt><trkpt lat="52.0041312743" lon="-1.9954476692"><ele>-31.31</ele><time>2021-11-10T11:26:31Z</time></trkpt><trkpt lat="52.0041381475" lon="-1.9955950230"><ele>-31.89</ele><time>2021-11-10T11:26:43Z</time></trkpt><trkpt lat="52.0041676518" lon="-1.9957802631"><ele>-32.76</ele><time>2021-11-10T11:26:57Z</time></trkpt><trkpt lat="52.0041716751" lon="-1.9958007149"><ele>-32.88</ele><time>2021-11-10T11:26:59Z</time></trkpt><trkpt lat="52.0041872654" lon="-1.9958963525"><ele>-33.24</ele><time>2021-11-10T11:27:07Z</time></trkpt><trkpt lat="52.0042069629" lon="-1.9960240088"><ele>-33.73</ele><time>2021-11-10T11:27:16Z</time></trkpt><trkpt lat="52.0042191166" lon="-1.9961374160"><ele>-34.11</ele><time>2021-11-10T11:27:24Z</time></trkpt><trkpt lat="52.0042323601" lon="-1.9962421060"><ele>-34.48</ele><time>2021-11-10T11:27:32Z</time></trkpt><trkpt lat="52.0042509679" lon="-1.9963910524"><ele>-35.04</ele><time>2021-11-10T11:27:43Z</time></trkpt><trkpt lat="52.0042741019" lon="-1.9965555891"><ele>-35.67</ele><time>2021-11-10T11:27:55Z</time></trkpt><trkpt lat="52.0042876806" lon="-1.9966373965"><ele>-35.92</ele><time>2021-11-10T11:28:01Z</time></trkpt><trkpt lat="52.0042918716" lon="-1.9966666494"><ele>-36.05</ele><time>2021-11-10T11:28:03Z</time></trkpt><trkpt lat="52.0042982418" lon="-1.9967097323"><ele>-36.11</ele><time>2021-11-10T11:28:06Z</time></trkpt><trkpt lat="52.0043275785" lon="-1.9968678989"><ele>-36.60</ele><time>2021-11-10T11:28:18Z</time></trkpt><trkpt lat="52.0043432526" lon="-1.9969692361"><ele>-36.93</ele><time>2021-11-10T11:28:26Z</time></trkpt><trkpt lat="52.0043569151" lon="-1.9971515425"><ele>-36.98</ele><time>2021-11-10T11:28:39Z</time></trkpt><trkpt lat="52.0043592621" lon="-1.9971790351"><ele>-36.99</ele><time>2021-11-10T11:28:41Z</time></trkpt><trkpt lat="52.0043606032" lon="-1.9972096290"><ele>-37.03</ele><time>2021-11-10T11:28:43Z</time></trkpt><trkpt lat="52.0043632854" lon="-1.9972908497"><ele>-37.22</ele><time>2021-11-10T11:28:50Z</time></trkpt><trkpt lat="52.0043476950" lon="-1.9973873254"><ele>-37.37</ele><time>2021-11-10T11:29:02Z</time></trkpt><trkpt lat="52.0042681508" lon="-1.9974599127"><ele>-37.88</ele><time>2021-11-10T11:29:12Z</time></trkpt><trkpt lat="52.0041607786" lon="-1.9975194242"><ele>-38.22</ele><time>2021-11-10T11:29:25Z</time></trkpt><trkpt lat="52.0040697511" lon="-1.9975594059"><ele>-38.26</ele><time>2021-11-10T11:29:36Z</time></trkpt><trkpt lat="52.0040630456" lon="-1.9975639321"><ele>-38.28</ele><time>2021-11-10T11:29:37Z</time></trkpt><trkpt lat="52.0040012710" lon="-1.9975986332"><ele>-38.54</ele><time>2021-11-10T11:29:45Z</time></trkpt><trkpt lat="52.0039197151" lon="-1.9976552948"><ele>-38.82</ele><time>2021-11-10T11:29:58Z</time></trkpt><trkpt lat="52.0038677473" lon="-1.9976733997"><ele>-39.05</ele><time>2021-11-10T11:30:12Z</time></trkpt><trkpt lat="52.0038385782" lon="-1.9976615813"><ele>-39.17</ele><time>2021-11-10T11:30:20Z</time></trkpt><trkpt lat="52.0037003607" lon="-1.9977819454"><ele>-39.14</ele><time>2021-11-10T11:30:35Z</time></trkpt><trkpt lat="52.0036854409" lon="-1.9977951050"><ele>-39.21</ele><time>2021-11-10T11:30:39Z</time></trkpt><trkpt lat="52.0036115125" lon="-1.9978704583"><ele>-39.78</ele><time>2021-11-10T11:30:48Z</time></trkpt><trkpt lat="52.0035742968" lon="-1.9978985377"><ele>-39.84</ele><time>2021-11-10T11:30:51Z</time></trkpt><trkpt lat="52.0035171323" lon="-1.9979458116"><ele>-39.55</ele><time>2021-11-10T11:31:05Z</time></trkpt><trkpt lat="52.0034887176" lon="-1.9979652576"><ele>-39.64</ele><time>2021-11-10T11:31:19Z</time></trkpt><trkpt lat="52.0034232549" lon="-1.9980182312"><ele>-39.90</ele><time>2021-11-10T11:31:37Z</time></trkpt><trkpt lat="52.0033662580" lon="-1.9980728813"><ele>-39.96</ele><time>2021-11-10T11:31:46Z</time></trkpt><trkpt lat="52.0032975264" lon="-1.9981546048"><ele>-40.08</ele><time>2021-11-10T11:31:58Z</time></trkpt><trkpt lat="52.0032312255" lon="-1.9982417766"><ele>-40.25</ele><time>2021-11-10T11:32:08Z</time></trkpt><trkpt lat="52.0031561237" lon="-1.9983208179"><ele>-40.30</ele><time>2021-11-10T11:32:22Z</time></trkpt><trkpt lat="52.0030908287" lon="-1.9983899686"><ele>-40.47</ele><time>2021-11-10T11:32:31Z</time></trkpt><trkpt lat="52.0030630846" lon="-1.9984317105"><ele>-40.52</ele><time>2021-11-10T11:32:36Z</time></trkpt><trkpt lat="52.0030150563" lon="-1.9984920602"><ele>-40.62</ele><time>2021-11-10T11:32:43Z</time></trkpt><trkpt lat="52.0029884856" lon="-1.9985157810"><ele>-40.65</ele><time>2021-11-10T11:32:47Z</time></trkpt><trkpt lat="52.0029435586" lon="-1.9985736161"><ele>-40.92</ele><time>2021-11-10T11:32:54Z</time></trkpt><trkpt lat="52.0028731506" lon="-1.9986425992"><ele>-40.89</ele><time>2021-11-10T11:33:03Z</time></trkpt><trkpt lat="52.0028411318" lon="-1.9986700919"><ele>-40.89</ele><time>2021-11-10T11:33:07Z</time></trkpt><trkpt lat="52.0027652755" lon="-1.9987658132"><ele>-41.37</ele><time>2021-11-10T11:33:18Z</time></trkpt><trkpt lat="52.0026820432" lon="-1.9988529850"><ele>-41.67</ele><time>2021-11-10T11:33:32Z</time></trkpt><trkpt lat="52.0026220288" lon="-1.9989247341"><ele>-41.82</ele><time>2021-11-10T11:33:43Z</time></trkpt><trkpt lat="52.0025918540" lon="-1.9989583455"><ele>-41.96</ele><time>2021-11-10T11:33:47Z</time></trkpt><trkpt lat="52.0025053527" lon="-1.9990356266"><ele>-42.23</ele><time>2021-11-10T11:33:59Z</time></trkpt><trkpt lat="52.0024492778" lon="-1.9990979880"><ele>-42.48</ele><time>2021-11-10T11:34:07Z</time></trkpt><trkpt lat="52.0023983996" lon="-1.9991417415"><ele>-42.65</ele><time>2021-11-10T11:34:14Z</time></trkpt><trkpt lat="52.0023070369" lon="-1.9992348645"><ele>-42.84</ele><time>2021-11-10T11:34:26Z</time></trkpt><trkpt lat="52.0022253133" lon="-1.9993136544"><ele>-43.16</ele><time>2021-11-10T11:34:36Z</time></trkpt><trkpt lat="52.0021509659" lon="-1.9993968029"><ele>-43.45</ele><time>2021-11-10T11:34:45Z</time></trkpt><trkpt lat="52.0020742714" lon="-1.9994512852"><ele>-43.71</ele><time>2021-11-10T11:34:54Z</time></trkpt><trkpt lat="52.0020242315" lon="-1.9995058514"><ele>-43.85</ele><time>2021-11-10T11:35:01Z</time></trkpt><trkpt lat="52.0019622892" lon="-1.9995558914"><ele>-43.90</ele><time>2021-11-10T11:35:09Z</time></trkpt><trkpt lat="52.0018895343" lon="-1.9996355195"><ele>-44.35</ele><time>2021-11-10T11:35:19Z</time></trkpt><trkpt lat="52.0018050447" lon="-1.9997068495"><ele>-44.73</ele><time>2021-11-10T11:35:30Z</time></trkpt><trkpt lat="52.0017793961" lon="-1.9997307379"><ele>-44.83</ele><time>2021-11-10T11:35:33Z</time></trkpt><trkpt lat="52.0017164480" lon="-1.9997922610"><ele>-45.07</ele><time>2021-11-10T11:35:41Z</time></trkpt><trkpt lat="52.0016628876" lon="-1.9998564664"><ele>-45.40</ele><time>2021-11-10T11:35:48Z</time></trkpt><trkpt lat="52.0015783980" lon="-1.9999203365"><ele>-45.56</ele><time>2021-11-10T11:35:58Z</time></trkpt><trkpt lat="52.0015186351" lon="-2.0000022277"><ele>-45.92</ele><time>2021-11-10T11:36:10Z</time></trkpt><trkpt lat="52.0014743786" lon="-2.0000598952"><ele>-46.19</ele><time>2021-11-10T11:36:17Z</time></trkpt><trkpt lat="52.0014473051" lon="-2.0000742283"><ele>-46.29</ele><time>2021-11-10T11:36:20Z</time></trkpt><trkpt lat="52.0013478957" lon="-2.0001649205"><ele>-46.43</ele><time>2021-11-10T11:36:32Z</time></trkpt><trkpt lat="52.0012862049" lon="-2.0002334006"><ele>-46.54</ele><time>2021-11-10T11:36:41Z</time></trkpt><trkpt lat="52.0012815949" lon="-2.0002452191"><ele>-46.58</ele><time>2021-11-10T11:36:42Z</time></trkpt><trkpt lat="52.0012578741" lon="-2.0002788305"><ele>-46.73</ele><time>2021-11-10T11:36:46Z</time></trkpt><trkpt lat="52.0012341533" lon="-2.0003179740"><ele>-46.80</ele><time>2021-11-10T11:36:50Z</time></trkpt><trkpt lat="52.0011996198" lon="-2.0003674272"><ele>-46.81</ele><time>2021-11-10T11:36:55Z</time></trkpt><trkpt lat="52.0011176448" lon="-2.0004841033"><ele>-47.07</ele><time>2021-11-10T11:37:06Z</time></trkpt><trkpt lat="52.0010475721" lon="-2.0005519968"><ele>-47.31</ele><time>2021-11-10T11:37:16Z</time></trkpt><trkpt lat="52.0009762421" lon="-2.0006070659"><ele>-47.59</ele><time>2021-11-10T11:37:25Z</time></trkpt><trkpt lat="52.0008968655" lon="-2.0006676670"><ele>-47.75</ele><time>2021-11-10T11:37:34Z</time></trkpt><trkpt lat="52.0008138847" lon="-2.0007052179"><ele>-47.91</ele><time>2021-11-10T11:37:43Z</time></trkpt><trkpt lat="52.0007237792" lon="-2.0007462054"><ele>-48.12</ele><time>2021-11-10T11:37:53Z</time></trkpt><trkpt lat="52.0006477553" lon="-2.0007864386"><ele>-48.32</ele><time>2021-11-10T11:38:02Z</time></trkpt><trkpt lat="52.0005459990" lon="-2.0008657314"><ele>-48.62</ele><time>2021-11-10T11:38:14Z</time></trkpt><trkpt lat="52.0005215239" lon="-2.0008904580"><ele>-48.65</ele><time>2021-11-10T11:38:17Z</time></trkpt><trkpt lat="52.0004224498" lon="-2.0009632129"><ele>-48.80</ele><time>2021-11-10T11:38:28Z</time></trkpt><trkpt lat="52.0003174245" lon="-2.0010523126"><ele>-49.17</ele><time>2021-11-10T11:38:40Z</time></trkpt><trkpt lat="52.0002273191" lon="-2.0011206251"><ele>-49.57</ele><time>2021-11-10T11:38:51Z</time></trkpt><trkpt lat="52.0002198592" lon="-2.0011284202"><ele>-49.59</ele><time>2021-11-10T11:38:52Z</time></trkpt><trkpt lat="52.0001611020" lon="-2.0012368821"><ele>-49.66</ele><time>2021-11-10T11:39:02Z</time></trkpt><trkpt lat="52.0001212042" lon="-2.0013531391"><ele>-49.81</ele><time>2021-11-10T11:39:11Z</time></trkpt><trkpt lat="52.0001167618" lon="-2.0014166739"><ele>-49.90</ele><time>2021-11-10T11:39:16Z</time></trkpt><trkpt lat="52.0001294184" lon="-2.0015942026"><ele>-50.32</ele><time>2021-11-10T11:39:29Z</time></trkpt><trkpt lat="52.0001504570" lon="-2.0016446617"><ele>-50.45</ele><time>2021-11-10T11:39:40Z</time></trkpt><trkpt lat="52.0001612697" lon="-2.0017227810"><ele>-50.66</ele><time>2021-11-10T11:39:53Z</time></trkpt><trkpt lat="52.0001792908" lon="-2.0018363558"><ele>-50.76</ele><time>2021-11-10T11:40:00Z</time></trkpt><trkpt lat="52.0001930371" lon="-2.0019001421"><ele>-50.87</ele><time>2021-11-10T11:40:05Z</time></trkpt><trkpt lat="52.0002195239" lon="-2.0020167343"><ele>-51.05</ele><time>2021-11-10T11:40:14Z</time></trkpt><trkpt lat="52.0002093818" lon="-2.0022176486"><ele>-51.41</ele><time>2021-11-10T11:40:28Z</time></trkpt><trkpt lat="52.0001832303" lon="-2.0022597257"><ele>-51.55</ele><time>2021-11-10T11:40:32Z</time></trkpt><trkpt lat="52.0000868384" lon="-2.0023104362"><ele>-51.85</ele><time>2021-11-10T11:40:45Z</time></trkpt><trkpt lat="52.0000497904" lon="-2.0023213327"><ele>-51.95</ele><time>2021-11-10T11:40:49Z</time></trkpt><trkpt lat="51.9999450166" lon="-2.0023321453"><ele>-52.31</ele><time>2021-11-10T11:41:03Z</time></trkpt><trkpt lat="51.9999585953" lon="-2.0023082569"><ele>-52.32</ele><time>2021-11-10T11:41:19Z</time></trkpt><trkpt lat="51.9999175239" lon="-2.0023363363"><ele>-52.15</ele><time>2021-11-10T11:41:28Z</time></trkpt><trkpt lat="51.9998247363" lon="-2.0023655053"><ele>-52.31</ele><time>2021-11-10T11:41:37Z</time></trkpt><trkpt lat="51.9996915478" lon="-2.0024095941"><ele>-52.75</ele><time>2021-11-10T11:41:49Z</time></trkpt><trkpt lat="51.9996803999" lon="-2.0024146233"><ele>-52.75</ele><time>2021-11-10T11:41:50Z</time></trkpt><trkpt lat="51.9996088184" lon="-2.0024583768"><ele>-52.79</ele><time>2021-11-10T11:41:56Z</time></trkpt><trkpt lat="51.9995762967" lon="-2.0024706144"><ele>-52.91</ele><time>2021-11-10T11:41:59Z</time></trkpt><trkpt lat="51.9994369056" lon="-2.0025639888"><ele>-53.30</ele><time>2021-11-10T11:42:11Z</time></trkpt><trkpt lat="51.9993417710" lon="-2.0026369113"><ele>-53.90</ele><time>2021-11-10T11:42:22Z</time></trkpt><trkpt lat="51.9992034696" lon="-2.0027424395"><ele>-54.56</ele><time>2021-11-10T11:42:37Z</time></trkpt><trkpt lat="51.9990737177" lon="-2.0028274320"><ele>-55.61</ele><time>2021-11-10T11:42:54Z</time></trkpt><trkpt lat="51.9989160541" lon="-2.0028350595"><ele>-56.23</ele><time>2021-11-10T11:43:11Z</time></trkpt><trkpt lat="51.9988976140" lon="-2.0028131828"><ele>-56.27</ele><time>2021-11-10T11:43:14Z</time></trkpt><trkpt lat="51.9988546148" lon="-2.0026630629"><ele>-56.26</ele><time>2021-11-10T11:43:31Z</time></trkpt><trkpt lat="51.9987971988" lon="-2.0025468897"><ele>-56.39</ele><time>2021-11-10T11:43:42Z</time></trkpt><trkpt lat="51.9987780880" lon="-2.0025489852"><ele>-56.39</ele><time>2021-11-10T11:43:44Z</time></trkpt><trkpt lat="51.9987007231" lon="-2.0026638173"><ele>-56.05</ele><time>2021-11-10T11:43:54Z</time></trkpt><trkpt lat="51.9986673631" lon="-2.0027603768"><ele>-55.86</ele><time>2021-11-10T11:44:00Z</time></trkpt><trkpt lat="51.9986348413" lon="-2.0028125960"><ele>-55.79</ele><time>2021-11-10T11:44:04Z</time></trkpt><trkpt lat="51.9985899143" lon="-2.0028439444"><ele>-55.76</ele><time>2021-11-10T11:44:17Z</time></trkpt><trkpt lat="51.9985922612" lon="-2.0028239954"><ele>-55.60</ele><time>2021-11-10T11:44:38Z</time></trkpt></trkseg></trk></gpx>